createdAt,value
2023-02-12T00:01:28.908Z,8.31
2023-02-12T00:03:56.376Z,8.30
2023-02-12T00:06:24.228Z,8.30
2023-02-12T00:08:53.558Z,8.30
2023-02-12T00:11:29.958Z,8.31
2023-02-12T00:13:58.320Z,8.19
2023-02-12T00:16:29.082Z,8.22
2023-02-12T00:18:58.120Z,8.19
2023-02-12T00:21:25.551Z,8.18
2023-02-12T00:23:52.581Z,8.16
2023-02-12T00:26:21.403Z,8.13
2023-02-12T00:28:56.153Z,8.13
2023-02-12T00:31:29.808Z,8.13
2023-02-12T00:33:58.558Z,8.11
2023-02-12T00:36:29.230Z,8.12
2023-02-12T00:38:57.433Z,8.08
2023-02-12T00:41:25.995Z,8.03
2023-02-12T00:43:53.144Z,7.95
2023-02-12T00:46:21.070Z,7.95
2023-02-12T00:48:48.060Z,7.90
2023-02-12T00:51:16.922Z,7.88
2023-02-12T00:53:44.141Z,7.82
2023-02-12T00:56:13.616Z,7.81
2023-02-12T00:58:40.736Z,7.76
2023-02-12T01:01:08.206Z,7.73
2023-02-12T01:03:36.146Z,7.65
2023-02-12T01:06:03.271Z,7.59
2023-02-12T01:08:30.421Z,7.51
2023-02-12T01:11:00.962Z,7.40
2023-02-12T01:13:30.615Z,7.43
2023-02-12T01:16:16.663Z,7.41
2023-02-12T01:18:45.186Z,7.38
2023-02-12T01:21:21.263Z,7.32
2023-02-12T01:23:49.448Z,7.31
2023-02-12T01:26:21.120Z,7.29
2023-02-12T01:28:57.017Z,7.19
2023-02-12T01:31:27.067Z,7.19
2023-02-12T01:33:56.687Z,7.20
2023-02-12T01:36:24.686Z,7.18
2023-02-12T01:38:52.094Z,7.18
2023-02-12T01:41:22.144Z,7.19
2023-02-12T01:44:26.048Z,7.14
2023-02-12T01:47:01.656Z,7.09
2023-02-12T01:49:28.589Z,7.06
2023-02-12T01:52:08.970Z,7.08
2023-02-12T01:54:38.062Z,7.10
2023-02-12T01:57:07.125Z,7.08
2023-02-12T01:59:36.770Z,7.10
2023-02-12T02:02:05.841Z,7.10
2023-02-12T02:04:40.428Z,7.01
2023-02-12T02:07:09.809Z,7.04
2023-02-12T02:09:39.476Z,7.04
2023-02-12T02:12:26.382Z,7.03
2023-02-12T02:15:00.216Z,7.04
2023-02-12T02:17:38.654Z,7.02
2023-02-12T02:20:43.102Z,7.03
2023-02-12T02:23:40.891Z,7.01
2023-02-12T02:26:32.176Z,6.99
2023-02-12T02:29:17.682Z,6.96
2023-02-12T02:31:50.924Z,6.96
2023-02-12T02:34:21.589Z,6.97
2023-02-12T02:37:07.255Z,6.94
2023-02-12T02:39:39.347Z,6.92
2023-02-12T02:42:24.449Z,6.94
2023-02-12T02:44:54.131Z,6.88
2023-02-12T02:47:46.718Z,6.85
2023-02-12T02:50:18.263Z,6.79
2023-02-12T02:52:51.327Z,6.76
2023-02-12T02:55:27.488Z,6.74
2023-02-12T02:57:57.372Z,6.71
2023-02-12T03:00:37.393Z,6.70
2023-02-12T03:03:51.458Z,6.66
2023-02-12T03:06:46.499Z,6.57
2023-02-12T03:09:31.614Z,6.53
2023-02-12T03:12:06.155Z,6.51
2023-02-12T03:14:36.900Z,6.48
2023-02-12T03:17:34.826Z,6.40
2023-02-12T03:20:13.051Z,6.37
2023-02-12T03:22:47.144Z,6.36
2023-02-12T03:25:20.689Z,6.34
2023-02-12T03:28:00.937Z,6.28
2023-02-12T03:30:42.109Z,6.27
2023-02-12T03:33:39.154Z,6.22
2023-02-12T03:36:43.601Z,6.24
2023-02-12T03:39:29.736Z,6.23
2023-02-12T03:42:06.307Z,6.20
2023-02-12T03:44:51.878Z,6.10
2023-02-12T03:47:39.725Z,6.07
2023-02-12T03:50:21.502Z,6.09
2023-02-12T03:52:53.054Z,6.05
2023-02-12T03:55:20.682Z,6.05
2023-02-12T03:58:07.680Z,6.06
2023-02-12T04:00:43.321Z,6.07
2023-02-12T04:03:10.337Z,6.07
2023-02-12T04:05:38.289Z,6.04
2023-02-12T04:08:09.111Z,5.99
2023-02-12T04:11:15.886Z,6.01
2023-02-12T04:13:53.840Z,5.98
2023-02-12T04:16:33.202Z,5.96
2023-02-12T04:19:09.613Z,5.96
2023-02-12T04:22:08.582Z,5.95
2023-02-12T04:24:46.944Z,5.90
2023-02-12T04:27:34.716Z,5.93
2023-02-12T04:30:19.826Z,5.94
2023-02-12T04:32:53.060Z,5.91
2023-02-12T04:35:35.519Z,5.87
2023-02-12T04:38:14.068Z,5.89
2023-02-12T04:40:42.381Z,5.88
2023-02-12T04:43:15.493Z,5.90
2023-02-12T04:45:45.746Z,5.81
2023-02-12T04:48:16.546Z,5.87
2023-02-12T04:50:45.304Z,5.86
2023-02-12T04:53:12.761Z,5.86
2023-02-12T04:55:39.743Z,5.87
2023-02-12T04:58:07.497Z,5.88
2023-02-12T05:00:37.971Z,5.89
2023-02-12T05:03:07.071Z,5.88
2023-02-12T05:05:34.317Z,5.81
2023-02-12T05:08:02.115Z,5.82
2023-02-12T05:10:29.126Z,5.77
2023-02-12T05:13:01.591Z,5.74
2023-02-12T05:15:28.735Z,5.72
2023-02-12T05:18:00.925Z,5.68
2023-02-12T05:20:28.018Z,5.67
2023-02-12T05:22:58.310Z,5.64
2023-02-12T05:25:25.233Z,5.59
2023-02-12T05:27:57.470Z,5.62
2023-02-12T05:30:24.891Z,5.59
2023-02-12T05:32:52.506Z,5.57
2023-02-12T05:35:19.699Z,5.51
2023-02-12T05:37:46.566Z,5.52
2023-02-12T05:40:19.494Z,5.50
2023-02-12T05:42:49.250Z,5.50
2023-02-12T05:45:19.265Z,5.46
2023-02-12T05:47:46.510Z,5.46
2023-02-12T05:50:13.431Z,5.45
2023-02-12T05:52:44.265Z,5.45
2023-02-12T05:55:14.735Z,5.30
2023-02-12T05:57:43.989Z,5.26
2023-02-12T06:00:13.684Z,5.23
2023-02-12T06:02:40.785Z,5.21
2023-02-12T06:05:10.083Z,5.22
2023-02-12T06:07:39.494Z,5.13
2023-02-12T06:10:10.165Z,4.98
2023-02-12T06:12:46.389Z,5.07
2023-02-12T06:15:19.881Z,4.99
2023-02-12T06:17:46.929Z,5.01
2023-02-12T06:20:17.054Z,5.01
2023-02-12T06:22:48.563Z,5.01
2023-02-12T06:25:15.911Z,5.03
2023-02-12T06:27:43.088Z,5.02
2023-02-12T06:30:10.900Z,5.00
2023-02-12T06:32:38.015Z,4.98
2023-02-12T06:35:07.512Z,4.95
2023-02-12T06:37:37.240Z,4.92
2023-02-12T06:40:06.089Z,4.91
2023-02-12T06:42:33.254Z,4.93
2023-02-12T06:45:03.863Z,4.93
2023-02-12T06:47:33.265Z,4.94
2023-02-12T06:50:03.301Z,4.94
2023-02-12T06:52:33.047Z,4.96
2023-02-12T06:54:59.919Z,5.00
2023-02-12T06:57:26.907Z,5.08
2023-02-12T06:59:56.620Z,5.35
2023-02-12T07:02:26.091Z,5.69
2023-02-12T07:04:57.770Z,6.08
2023-02-12T07:07:28.020Z,6.58
2023-02-12T07:09:55.159Z,7.06
2023-02-12T07:12:22.351Z,7.57
2023-02-12T07:14:49.338Z,8.12
2023-02-12T07:17:16.210Z,8.62
2023-02-12T07:19:43.467Z,9.14
2023-02-12T07:22:10.600Z,9.70
2023-02-12T07:24:40.013Z,10.30
2023-02-12T07:27:07.059Z,10.71
2023-02-12T07:29:34.147Z,11.18
2023-02-12T07:32:09.126Z,11.68
2023-02-12T07:34:39.056Z,12.11
2023-02-12T07:37:07.606Z,12.64
2023-02-12T07:39:36.692Z,13.10
2023-02-12T07:42:03.779Z,13.49
2023-02-12T07:44:32.511Z,13.97
2023-02-12T07:47:03.006Z,14.52
2023-02-12T07:49:32.889Z,15.01
2023-02-12T07:51:59.956Z,15.44
2023-02-12T07:54:26.959Z,15.90
2023-02-12T07:56:54.133Z,16.44
2023-02-12T07:59:21.535Z,16.95
2023-02-12T08:01:51.036Z,17.37
2023-02-12T08:04:22.316Z,17.85
2023-02-12T08:06:51.166Z,18.32
2023-02-12T08:09:27.944Z,18.86
2023-02-12T08:11:58.179Z,19.30
2023-02-12T08:14:29.745Z,19.75
2023-02-12T08:16:57.023Z,20.19
2023-02-12T08:19:26.984Z,20.70
2023-02-12T08:21:56.111Z,21.01
2023-02-12T08:24:23.777Z,21.26
2023-02-12T08:26:51.188Z,21.80
2023-02-12T08:29:33.186Z,22.28
2023-02-12T08:32:09.202Z,22.85
2023-02-12T08:34:38.395Z,23.20
2023-02-12T08:37:06.885Z,23.76
2023-02-12T08:39:39.836Z,24.12
2023-02-12T08:42:09.786Z,24.36
2023-02-12T08:44:38.150Z,24.83
2023-02-12T08:47:06.941Z,25.34
2023-02-12T08:49:38.448Z,25.83
2023-02-12T08:52:08.377Z,26.00
2023-02-12T08:54:35.604Z,26.30
2023-02-12T08:57:03.831Z,26.46
2023-02-12T08:59:32.999Z,26.71
2023-02-12T09:02:08.723Z,26.58
2023-02-12T09:04:36.205Z,26.82
2023-02-12T09:07:03.086Z,26.71
2023-02-12T09:09:33.454Z,26.74
2023-02-12T09:12:00.490Z,27.03
2023-02-12T09:14:27.494Z,27.53
2023-02-12T09:16:55.305Z,28.07
2023-02-12T09:19:22.525Z,27.98
2023-02-12T09:21:56.307Z,28.83
2023-02-12T09:24:25.166Z,29.03
2023-02-12T09:26:52.219Z,29.49
2023-02-12T09:29:22.240Z,29.94
2023-02-12T09:31:49.475Z,30.18
2023-02-12T09:34:16.951Z,30.28
2023-02-12T09:36:46.129Z,30.62
2023-02-12T09:39:13.168Z,31.11
2023-02-12T09:42:03.330Z,31.54
2023-02-12T09:44:53.517Z,31.90
2023-02-12T09:47:54.222Z,32.36
2023-02-12T09:50:37.886Z,32.73
2023-02-12T09:53:13.667Z,32.63
2023-02-12T09:55:41.000Z,32.63
2023-02-12T09:58:16.866Z,33.00
2023-02-12T10:00:44.749Z,33.49
2023-02-12T10:03:21.280Z,34.03
2023-02-12T10:05:54.381Z,34.05
2023-02-12T10:08:46.713Z,34.50
2023-02-12T10:11:30.414Z,34.79
2023-02-12T10:14:19.846Z,35.20
2023-02-12T10:16:55.806Z,35.15
2023-02-12T10:19:37.046Z,35.49
2023-02-12T10:22:31.212Z,35.72
2023-02-12T10:25:21.798Z,35.80
2023-02-12T10:27:54.927Z,35.81
2023-02-12T10:30:27.450Z,36.06
2023-02-12T10:33:03.586Z,35.87
2023-02-12T10:35:32.527Z,36.11
2023-02-12T10:38:16.517Z,35.78
2023-02-12T10:40:45.038Z,35.48
2023-02-12T10:43:13.928Z,35.69
2023-02-12T10:45:43.536Z,35.60
2023-02-12T10:48:15.902Z,35.99
2023-02-12T10:51:09.255Z,35.70
2023-02-12T10:53:40.269Z,35.83
2023-02-12T10:56:13.849Z,36.00
2023-02-12T10:59:02.242Z,35.69
2023-02-12T11:01:31.826Z,35.55
2023-02-12T11:04:18.906Z,35.45
2023-02-12T11:06:59.772Z,33.70
2023-02-12T11:09:35.226Z,32.13
2023-02-12T11:12:03.813Z,31.58
2023-02-12T11:14:31.181Z,29.69
2023-02-12T11:17:01.581Z,30.21
2023-02-12T11:19:32.581Z,30.69
2023-02-12T11:22:18.838Z,29.75
2023-02-12T11:24:47.710Z,29.31
2023-02-12T11:27:26.173Z,29.55
2023-02-12T11:30:12.882Z,29.48
2023-02-12T11:32:39.890Z,28.40
2023-02-12T11:35:35.294Z,26.63
2023-02-12T11:38:03.632Z,24.90
2023-02-12T11:40:36.039Z,23.98
2023-02-12T11:43:07.022Z,23.07
2023-02-12T11:45:48.103Z,21.36
2023-02-12T11:48:22.883Z,20.64
2023-02-12T11:50:53.669Z,20.13
2023-02-12T11:53:25.499Z,20.02
2023-02-12T11:55:59.189Z,20.22
2023-02-12T11:58:28.195Z,20.36
2023-02-12T12:01:08.050Z,20.44
2023-02-12T12:03:44.092Z,20.40
2023-02-12T12:06:20.052Z,20.28
2023-02-12T12:09:07.139Z,20.04
2023-02-12T12:11:52.208Z,18.60
2023-02-12T12:14:29.763Z,17.89
2023-02-12T12:17:29.157Z,17.62
2023-02-12T12:20:10.599Z,17.75
2023-02-12T12:22:55.905Z,17.81
2023-02-12T12:25:26.540Z,17.94
2023-02-12T12:28:49.108Z,17.65
2023-02-12T12:31:22.526Z,17.31
2023-02-12T12:33:49.699Z,16.95
2023-02-12T12:36:33.107Z,17.02
2023-02-12T12:39:14.787Z,17.31
2023-02-12T12:41:51.287Z,17.15
2023-02-12T12:44:39.986Z,17.48
2023-02-12T12:47:36.478Z,16.53
2023-02-12T12:50:26.421Z,16.92
2023-02-12T12:53:19.989Z,16.80
2023-02-12T12:56:11.421Z,16.13
2023-02-12T12:58:47.943Z,16.64
2023-02-12T13:01:14.809Z,16.87
2023-02-12T13:04:32.496Z,16.46
2023-02-12T13:07:14.225Z,16.45
2023-02-12T13:09:54.662Z,16.62
2023-02-12T13:12:24.056Z,16.79
2023-02-12T13:15:34.239Z,16.79
2023-02-12T13:18:14.884Z,16.72
2023-02-12T13:21:03.339Z,16.55
2023-02-12T13:23:51.895Z,16.57
2023-02-12T13:26:24.422Z,16.56
2023-02-12T13:28:55.582Z,16.45
2023-02-12T13:31:33.048Z,16.38
2023-02-12T13:34:07.650Z,16.32
2023-02-12T13:36:37.882Z,16.22
2023-02-12T13:39:27.412Z,16.30
2023-02-12T13:42:07.647Z,16.18
2023-02-12T13:44:38.226Z,16.20
2023-02-12T13:47:11.195Z,16.16
2023-02-12T13:50:01.309Z,16.09
2023-02-12T13:52:39.897Z,15.95
2023-02-12T13:55:19.043Z,16.01
2023-02-12T13:57:46.055Z,15.99
2023-02-12T14:00:47.707Z,15.99
2023-02-12T14:03:15.081Z,15.93
2023-02-12T14:05:42.844Z,16.04
2023-02-12T14:08:35.222Z,16.07
2023-02-12T14:11:09.337Z,15.86
2023-02-12T14:13:50.886Z,15.81
2023-02-12T14:16:29.668Z,15.82
2023-02-12T14:19:35.582Z,15.88
2023-02-12T14:22:12.230Z,15.99
2023-02-12T14:24:39.110Z,15.94
2023-02-12T14:27:27.265Z,15.91
2023-02-12T14:30:03.302Z,16.01
2023-02-12T14:32:45.084Z,16.11
2023-02-12T14:35:29.808Z,16.04
2023-02-12T14:38:16.631Z,16.08
2023-02-12T14:40:47.218Z,16.08
2023-02-12T14:43:59.009Z,16.06
2023-02-12T14:46:26.271Z,15.88
2023-02-12T14:49:06.054Z,15.86
2023-02-12T14:51:46.778Z,15.82
2023-02-12T14:54:19.429Z,15.79
2023-02-12T14:56:49.234Z,15.76
2023-02-12T14:59:21.703Z,15.63
2023-02-12T15:01:50.855Z,15.66
2023-02-12T15:04:30.982Z,15.66
2023-02-12T15:07:08.678Z,15.59
2023-02-12T15:09:41.768Z,15.60
2023-02-12T15:12:20.490Z,15.61
2023-02-12T15:15:01.387Z,15.52
2023-02-12T15:17:32.647Z,15.45
2023-02-12T15:20:06.213Z,15.49
2023-02-12T15:22:40.079Z,15.51
2023-02-12T15:25:26.948Z,15.45
2023-02-12T15:28:01.978Z,15.27
2023-02-12T15:30:35.704Z,14.91
2023-02-12T15:33:07.482Z,15.13
2023-02-12T15:35:40.074Z,15.17
2023-02-12T15:38:08.189Z,15.25
2023-02-12T15:40:38.882Z,15.25
2023-02-12T15:43:16.940Z,15.19
2023-02-12T15:45:51.692Z,15.13
2023-02-12T15:48:19.618Z,15.01
2023-02-12T15:50:54.635Z,14.94
2023-02-12T15:53:24.707Z,15.00
2023-02-12T15:55:52.770Z,14.96
2023-02-12T15:58:27.133Z,14.94
2023-02-12T16:00:59.555Z,14.95
2023-02-12T16:03:37.915Z,14.95
2023-02-12T16:06:14.237Z,14.65
2023-02-12T16:08:47.529Z,14.63
2023-02-12T16:11:20.012Z,14.52
2023-02-12T16:13:54.170Z,14.40
2023-02-12T16:16:30.262Z,14.46
2023-02-12T16:19:23.119Z,14.39
2023-02-12T16:21:56.081Z,14.33
2023-02-12T16:24:28.280Z,14.32
2023-02-12T16:26:56.715Z,14.31
2023-02-12T16:29:24.569Z,14.29
2023-02-12T16:32:01.500Z,14.17
2023-02-12T16:34:37.977Z,14.18
2023-02-12T16:38:02.081Z,14.22
2023-02-12T16:40:31.163Z,14.10
2023-02-12T16:43:02.309Z,14.00
2023-02-12T16:45:32.416Z,13.78
2023-02-12T16:48:08.692Z,13.72
2023-02-12T16:50:39.527Z,13.68
2023-02-12T16:53:09.066Z,13.69
2023-02-12T16:55:36.873Z,13.69
2023-02-12T16:58:03.869Z,13.67
2023-02-12T17:00:30.924Z,13.67
2023-02-12T17:02:58.108Z,13.65
2023-02-12T17:05:25.023Z,13.66
2023-02-12T17:07:52.007Z,13.63
2023-02-12T17:10:19.238Z,13.66
2023-02-12T17:12:52.481Z,13.68
2023-02-12T17:15:30.723Z,13.66
2023-02-12T17:17:57.804Z,13.61
2023-02-12T17:20:24.763Z,13.63
2023-02-12T17:22:55.521Z,13.59
2023-02-12T17:25:22.691Z,13.52
2023-02-12T17:27:49.525Z,13.52
2023-02-12T17:30:18.724Z,13.47
2023-02-12T17:32:45.607Z,13.46
2023-02-12T17:35:12.539Z,13.45
2023-02-12T17:37:39.567Z,13.41
2023-02-12T17:40:07.349Z,13.36
2023-02-12T17:42:34.289Z,13.23
2023-02-12T17:45:01.249Z,13.23
2023-02-12T17:47:28.180Z,13.17
2023-02-12T17:49:55.152Z,13.16
2023-02-12T17:52:22.082Z,13.13
2023-02-12T17:54:49.006Z,13.12
2023-02-12T17:57:15.937Z,13.09
2023-02-12T17:59:43.043Z,13.07
2023-02-12T18:02:12.343Z,13.05
2023-02-12T18:04:39.367Z,13.01
2023-02-12T18:07:06.420Z,12.97
2023-02-12T18:09:33.387Z,12.96
2023-02-12T18:12:00.353Z,12.97
2023-02-12T18:14:27.286Z,12.95
2023-02-12T18:16:54.623Z,12.94
2023-02-12T18:19:21.721Z,12.96
2023-02-12T18:21:48.681Z,12.79
2023-02-12T18:24:15.748Z,12.83
2023-02-12T18:26:42.860Z,12.72
2023-02-12T18:29:10.317Z,12.65
2023-02-12T18:31:37.671Z,12.60
2023-02-12T18:34:06.271Z,12.63
2023-02-12T18:36:33.699Z,12.55
2023-02-12T18:39:01.233Z,12.56
2023-02-12T18:41:31.716Z,12.55
2023-02-12T18:43:59.691Z,12.48
2023-02-12T18:46:31.928Z,12.41
2023-02-12T18:48:59.744Z,12.45
2023-02-12T18:51:38.178Z,12.45
2023-02-12T18:54:09.134Z,12.47
2023-02-12T18:56:41.127Z,12.43
2023-02-12T18:59:08.673Z,12.43
2023-02-12T19:01:36.497Z,12.43
2023-02-12T19:04:05.806Z,12.42
2023-02-12T19:06:34.594Z,12.42
2023-02-12T19:09:03.967Z,12.44
2023-02-12T19:11:31.575Z,12.43
2023-02-12T19:13:58.824Z,12.45
2023-02-12T19:16:26.278Z,12.45
2023-02-12T19:18:55.380Z,12.45
2023-02-12T19:21:26.282Z,12.42
2023-02-12T19:23:55.089Z,12.44
2023-02-12T19:26:23.193Z,12.41
2023-02-12T19:28:50.623Z,12.39
2023-02-12T19:31:23.494Z,12.35
2023-02-12T19:33:58.874Z,12.31
2023-02-12T19:36:29.255Z,12.26
2023-02-12T19:38:56.346Z,12.22
2023-02-12T19:41:25.812Z,12.19
2023-02-12T19:43:55.914Z,12.15
2023-02-12T19:46:23.201Z,12.11
2023-02-12T19:48:54.119Z,12.07
2023-02-12T19:51:22.282Z,12.05
2023-02-12T19:53:49.276Z,12.02
2023-02-12T19:56:16.580Z,11.98
2023-02-12T19:58:44.547Z,11.93
2023-02-12T20:01:16.599Z,11.86
2023-02-12T20:03:44.225Z,11.84
2023-02-12T20:06:15.154Z,11.79
2023-02-12T20:08:45.266Z,11.74
2023-02-12T20:11:16.859Z,11.66
2023-02-12T20:13:44.860Z,11.57
2023-02-12T20:16:16.230Z,11.54
2023-02-12T20:18:45.956Z,11.48
2023-02-12T20:21:17.095Z,11.47
2023-02-12T20:23:44.103Z,11.45
2023-02-12T20:26:14.402Z,11.43
2023-02-12T20:28:44.867Z,11.41
2023-02-12T20:31:33.880Z,11.36
2023-02-12T20:34:04.558Z,11.35
2023-02-12T20:36:37.359Z,11.30
2023-02-12T20:39:07.017Z,11.28
2023-02-12T20:41:37.369Z,11.17
2023-02-12T20:44:06.543Z,11.16
2023-02-12T20:46:40.028Z,11.11
2023-02-12T20:49:10.176Z,11.08
2023-02-12T20:51:37.935Z,11.02
2023-02-12T20:54:05.261Z,11.02
2023-02-12T20:56:37.354Z,10.99
2023-02-12T20:59:11.347Z,10.94
2023-02-12T21:01:40.390Z,10.92
2023-02-12T21:04:18.946Z,10.88
2023-02-12T21:06:47.467Z,10.83
2023-02-12T21:09:15.416Z,10.82
2023-02-12T21:11:46.591Z,10.80
2023-02-12T21:14:24.187Z,10.77
2023-02-12T21:16:54.191Z,10.70
2023-02-12T21:19:21.372Z,10.69
2023-02-12T21:21:53.077Z,10.69
2023-02-12T21:24:24.542Z,10.66
2023-02-12T21:26:54.517Z,10.59
2023-02-12T21:29:34.049Z,10.47
2023-02-12T21:32:02.115Z,10.45
2023-02-12T21:34:30.115Z,10.40
2023-02-12T21:36:58.718Z,10.38
2023-02-12T21:39:28.784Z,10.40
2023-02-12T21:42:00.329Z,10.36
2023-02-12T21:44:28.197Z,10.38
2023-02-12T21:46:58.714Z,10.33
2023-02-12T21:49:28.071Z,10.25
2023-02-12T21:52:02.312Z,10.26
2023-02-12T21:54:30.642Z,10.23
2023-02-12T21:56:58.093Z,10.24
2023-02-12T21:59:27.767Z,10.22
2023-02-12T22:02:04.367Z,10.21
2023-02-12T22:04:31.523Z,10.17
2023-02-12T22:07:06.502Z,10.17
2023-02-12T22:09:37.538Z,10.16
2023-02-12T22:12:07.513Z,10.13
2023-02-12T22:14:37.325Z,10.11
2023-02-12T22:17:07.242Z,10.12
2023-02-12T22:19:34.808Z,10.11
2023-02-12T22:22:01.769Z,10.08
2023-02-12T22:24:31.053Z,10.09
2023-02-12T22:26:58.479Z,10.06
2023-02-12T22:29:25.932Z,10.04
2023-02-12T22:31:53.597Z,10.02
2023-02-12T22:34:20.654Z,10.01
2023-02-12T22:36:47.932Z,9.98
2023-02-12T22:39:18.014Z,9.97
2023-02-12T22:41:46.398Z,9.95
2023-02-12T22:44:15.017Z,9.93
2023-02-12T22:46:43.700Z,9.92
2023-02-12T22:49:15.571Z,9.91
2023-02-12T22:51:42.901Z,9.87
2023-02-12T22:54:18.102Z,9.86
2023-02-12T22:56:48.699Z,9.82
2023-02-12T22:59:18.644Z,9.79
2023-02-12T23:01:51.329Z,9.74
2023-02-12T23:04:24.605Z,9.72
2023-02-12T23:06:54.110Z,9.72
2023-02-12T23:09:22.259Z,9.71
2023-02-12T23:12:01.307Z,9.69
2023-02-12T23:14:31.248Z,9.68
2023-02-12T23:17:01.209Z,9.69
2023-02-12T23:19:37.788Z,9.67
2023-02-12T23:22:20.171Z,9.64
2023-02-12T23:24:47.287Z,9.62
2023-02-12T23:27:14.390Z,9.60
2023-02-12T23:29:44.239Z,9.60
2023-02-12T23:32:11.247Z,9.60
2023-02-12T23:34:43.409Z,9.60
2023-02-12T23:37:19.138Z,9.60
2023-02-12T23:39:48.734Z,9.59
2023-02-12T23:42:18.351Z,9.59
2023-02-12T23:44:47.938Z,9.57
2023-02-12T23:47:18.712Z,9.53
2023-02-12T23:49:45.712Z,9.50
2023-02-12T23:52:12.806Z,9.47
2023-02-12T23:54:42.705Z,9.45
2023-02-12T23:57:12.288Z,9.44
2023-02-12T23:59:40.031Z,9.43
